createdAt,value
2018-06-09T00:00:39.966Z,4.33
2018-06-09T00:03:14.172Z,6.27
2018-06-09T00:05:56.343Z,5.13
2018-06-09T00:08:24.544Z,6.20
2018-06-09T00:10:57.982Z,6.80
2018-06-09T00:13:31.276Z,5.07
2018-06-09T00:16:02.277Z,6.23
2018-06-09T00:18:30.867Z,4.47
2018-06-09T00:21:01.153Z,5.90
2018-06-09T00:23:33.526Z,6.13
2018-06-09T00:26:02.126Z,6.73
2018-06-09T00:28:30.400Z,6.47
2018-06-09T00:31:01.351Z,9.83
2018-06-09T00:33:39.851Z,7.10
2018-06-09T00:36:19.913Z,7.47
2018-06-09T00:38:48.163Z,6.30
2018-06-09T00:41:16.463Z,10.10
2018-06-09T00:43:47.684Z,7.67
2018-06-09T00:46:32.838Z,6.80
2018-06-09T00:49:01.329Z,6.57
2018-06-09T00:51:32.049Z,6.63
2018-06-09T00:54:12.506Z,8.73
2018-06-09T00:56:46.318Z,6.77
2018-06-09T00:59:14.626Z,8.97
2018-06-09T01:01:47.761Z,8.03
2018-06-09T01:04:20.242Z,10.30
2018-06-09T01:06:51.757Z,8.90
2018-06-09T01:09:25.014Z,9.83
2018-06-09T01:12:05.135Z,10.27
2018-06-09T01:14:33.461Z,7.40
2018-06-09T01:17:06.670Z,10.43
2018-06-09T01:19:35.170Z,7.93
2018-06-09T01:22:11.383Z,8.33
2018-06-09T01:24:52.038Z,8.50
2018-06-09T01:27:27.515Z,6.87
2018-06-09T01:30:07.406Z,10.57
2018-06-09T01:32:35.846Z,7.67
2018-06-09T01:35:04.246Z,11.83
2018-06-09T01:37:32.489Z,9.87
2018-06-09T01:40:05.811Z,10.07
2018-06-09T01:42:40.348Z,10.90
2018-06-09T01:45:15.051Z,8.57
2018-06-09T01:47:43.342Z,8.53
2018-06-09T01:50:14.243Z,9.10
2018-06-09T01:52:45.019Z,10.97
2018-06-09T01:55:16.100Z,9.40
2018-06-09T01:57:44.376Z,9.20
2018-06-09T02:00:12.702Z,9.60
2018-06-09T02:02:47.419Z,10.00
2018-06-09T02:05:15.684Z,7.83
2018-06-09T02:07:53.493Z,9.03
2018-06-09T02:10:21.961Z,7.73
2018-06-09T02:12:50.447Z,11.60
2018-06-09T02:15:18.940Z,9.57
2018-06-09T02:17:47.200Z,8.07
2018-06-09T02:20:15.507Z,10.50
2018-06-09T02:22:47.916Z,9.07
2018-06-09T02:25:22.715Z,8.90
2018-06-09T02:27:51.016Z,10.13
2018-06-09T02:30:22.022Z,10.87
2018-06-09T02:33:07.370Z,8.20
2018-06-09T02:35:38.618Z,8.37
2018-06-09T02:38:07.048Z,10.60
2018-06-09T02:40:35.377Z,9.87
2018-06-09T02:43:07.837Z,9.87
2018-06-09T02:48:13.747Z,9.27
2018-06-09T02:50:42.000Z,9.70
2018-06-09T02:55:50.060Z,14.23
2018-06-09T02:58:23.331Z,9.10
2018-06-09T03:00:58.977Z,15.03
2018-06-09T03:03:33.616Z,9.07
2018-06-09T03:06:01.874Z,9.97
2018-06-09T03:08:35.939Z,13.07
2018-06-09T03:11:06.471Z,10.80
2018-06-09T03:13:40.611Z,14.60
2018-06-09T03:16:09.085Z,10.57
2018-06-09T03:18:37.588Z,11.00
2018-06-09T03:21:05.873Z,10.13
2018-06-09T03:23:34.553Z,10.17
2018-06-09T03:26:02.796Z,10.63
2018-06-09T03:28:35.378Z,9.87
2018-06-09T03:31:03.775Z,11.77
2018-06-09T03:33:37.006Z,10.43
2018-06-09T03:36:11.626Z,9.43
2018-06-09T03:38:49.836Z,10.37
2018-06-09T03:41:24.524Z,8.93
2018-06-09T03:43:52.824Z,10.97
2018-06-09T03:46:27.423Z,9.83
2018-06-09T03:48:58.432Z,12.33
2018-06-09T03:51:38.248Z,11.10
2018-06-09T03:54:10.537Z,12.90
2018-06-09T03:56:41.528Z,13.50
2018-06-09T03:59:10.022Z,11.00
2018-06-09T04:01:38.341Z,17.40
2018-06-09T04:04:06.579Z,10.70
2018-06-09T04:06:43.258Z,10.83
2018-06-09T04:09:11.547Z,11.70
2018-06-09T04:11:43.670Z,11.07
2018-06-09T04:14:15.020Z,12.50
2018-06-09T04:16:51.190Z,13.23
2018-06-09T04:19:19.497Z,10.83
2018-06-09T04:21:52.776Z,13.77
2018-06-09T04:24:26.212Z,11.90
2018-06-09T04:26:59.278Z,16.07
2018-06-09T04:29:29.599Z,14.50
2018-06-09T04:31:57.902Z,12.83
2018-06-09T04:34:26.098Z,11.27
2018-06-09T04:37:00.733Z,12.70
2018-06-09T04:39:33.186Z,10.47
2018-06-09T04:42:04.657Z,12.97
2018-06-09T04:44:35.767Z,12.00
2018-06-09T04:47:07.319Z,11.40
2018-06-09T04:49:45.636Z,10.77
2018-06-09T04:52:20.383Z,14.30
2018-06-09T04:54:53.498Z,11.13
2018-06-09T04:57:26.847Z,11.67
2018-06-09T04:59:57.184Z,12.53
2018-06-09T05:02:28.034Z,12.63
2018-06-09T05:05:07.920Z,10.67
2018-06-09T05:07:36.260Z,12.47
2018-06-09T05:10:09.037Z,14.13
2018-06-09T05:12:44.202Z,11.07
2018-06-09T05:15:12.487Z,13.00
2018-06-09T05:17:48.717Z,13.20
2018-06-09T05:20:19.777Z,14.20
2018-06-09T05:22:48.107Z,13.47
2018-06-09T05:25:16.343Z,12.77
2018-06-09T05:27:51.017Z,12.57
2018-06-09T05:30:19.315Z,16.20
2018-06-09T05:32:54.067Z,12.23
2018-06-09T05:35:22.296Z,13.77
2018-06-09T05:37:56.966Z,11.50
2018-06-09T05:40:25.215Z,11.00
2018-06-09T05:42:58.357Z,11.93
2018-06-09T05:45:38.014Z,10.00
2018-06-09T05:48:12.471Z,12.23
2018-06-09T05:50:49.261Z,11.07
2018-06-09T05:53:17.590Z,11.50
2018-06-09T05:55:53.617Z,11.43
2018-06-09T05:58:24.007Z,14.43
2018-06-09T06:00:55.251Z,17.53
2018-06-09T06:03:24.168Z,11.90
2018-06-09T06:06:06.403Z,11.70
2018-06-09T06:08:39.636Z,11.53
2018-06-09T06:11:07.882Z,14.27
2018-06-09T06:13:36.131Z,14.63
2018-06-09T06:16:08.777Z,15.43
2018-06-09T06:18:37.051Z,13.67
2018-06-09T06:21:11.379Z,13.23
2018-06-09T06:23:45.388Z,12.57
2018-06-09T06:26:13.647Z,13.77
2018-06-09T06:28:41.918Z,14.90
2018-06-09T06:31:13.209Z,14.13
2018-06-09T06:33:44.790Z,11.07
2018-06-09T06:36:19.179Z,11.37
2018-06-09T06:38:50.208Z,13.83
2018-06-09T06:41:18.482Z,12.57
2018-06-09T06:43:46.835Z,13.10
2018-06-09T06:46:21.166Z,14.93
2018-06-09T06:48:54.317Z,14.80
2018-06-09T06:51:24.589Z,14.70
2018-06-09T06:53:52.845Z,13.17
2018-06-09T06:56:23.985Z,13.27
2018-06-09T06:58:59.396Z,14.20
2018-06-09T07:01:30.489Z,14.93
2018-06-09T07:03:58.765Z,12.57
2018-06-09T07:06:27.041Z,13.47
2018-06-09T07:09:01.630Z,12.27
2018-06-09T07:11:36.272Z,11.93
2018-06-09T07:14:04.777Z,13.30
2018-06-09T07:16:33.159Z,15.60
2018-06-09T07:19:01.525Z,13.50
2018-06-09T07:21:36.675Z,12.63
2018-06-09T07:24:05.149Z,13.50
2018-06-09T07:26:39.493Z,13.63
2018-06-09T07:29:21.685Z,11.60
2018-06-09T07:31:50.239Z,14.13
2018-06-09T07:34:21.439Z,13.73
2018-06-09T07:36:49.684Z,11.33
2018-06-09T07:39:24.386Z,11.17
2018-06-09T07:41:52.669Z,14.87
2018-06-09T07:44:25.379Z,15.63
2018-06-09T07:46:53.675Z,11.63
2018-06-09T07:49:21.887Z,11.60
2018-06-09T07:51:52.946Z,14.30
2018-06-09T07:54:21.786Z,12.80
2018-06-09T07:56:50.309Z,11.73
2018-06-09T07:59:26.659Z,14.43
2018-06-09T08:01:54.947Z,12.03
2018-06-09T08:04:23.410Z,12.37
2018-06-09T08:06:55.690Z,13.17
2018-06-09T08:09:24.387Z,11.63
2018-06-09T08:11:52.848Z,12.40
2018-06-09T08:14:21.193Z,15.47
2018-06-09T08:16:49.432Z,17.33
2018-06-09T08:19:20.764Z,12.50
2018-06-09T08:21:54.243Z,17.00
2018-06-09T08:24:34.390Z,14.37
2018-06-09T08:27:04.475Z,13.77
2018-06-09T08:29:32.709Z,14.27
2018-06-09T08:32:06.186Z,15.70
2018-06-09T08:34:41.461Z,13.33
2018-06-09T08:37:21.487Z,14.43
2018-06-09T08:39:51.767Z,12.90
2018-06-09T08:42:20.006Z,13.83
2018-06-09T08:44:53.144Z,13.27
2018-06-09T08:47:25.572Z,15.70
2018-06-09T08:49:57.107Z,14.50
2018-06-09T08:52:28.555Z,16.07
2018-06-09T08:54:59.912Z,13.77
2018-06-09T08:57:42.214Z,16.23
2018-06-09T09:00:13.624Z,13.90
2018-06-09T09:02:41.931Z,13.47
2018-06-09T09:05:10.212Z,13.73
2018-06-09T09:07:43.339Z,15.53
2018-06-09T09:10:23.378Z,14.03
2018-06-09T09:12:51.696Z,13.53
2018-06-09T09:15:19.922Z,13.00
2018-06-09T09:17:51.144Z,14.10
2018-06-09T09:20:22.314Z,15.60
2018-06-09T09:22:50.873Z,12.77
2018-06-09T09:25:19.366Z,15.73
2018-06-09T09:27:47.654Z,14.13
2018-06-09T09:30:16.007Z,13.73
2018-06-09T09:32:47.046Z,13.17
2018-06-09T09:35:19.573Z,14.43
2018-06-09T09:37:56.090Z,13.37
2018-06-09T09:40:38.143Z,14.67
2018-06-09T09:43:06.608Z,16.60
2018-06-09T09:45:34.836Z,15.07
2018-06-09T09:48:03.138Z,13.27
2018-06-09T09:50:40.047Z,13.67
2018-06-09T09:53:08.710Z,12.57
2018-06-09T09:58:22.571Z,12.17
2018-06-09T10:00:52.939Z,13.43
2018-06-09T10:03:23.345Z,13.23
2018-06-09T10:05:51.779Z,13.83
2018-06-09T10:10:53.494Z,12.43
2018-06-09T10:13:21.815Z,15.43
2018-06-09T10:15:56.508Z,11.83
2018-06-09T10:18:24.747Z,12.17
2018-06-09T10:21:04.743Z,11.97
2018-06-09T10:23:36.007Z,13.60
2018-06-09T10:26:04.406Z,11.33
2018-06-09T10:28:32.683Z,10.53
2018-06-09T10:31:07.450Z,11.53
2018-06-09T10:33:35.670Z,11.50
2018-06-09T10:36:07.205Z,10.43
2018-06-09T10:38:35.490Z,11.87
2018-06-09T10:41:06.678Z,9.43
2018-06-09T10:43:46.729Z,8.77
2018-06-09T10:46:14.951Z,11.63
2018-06-09T10:48:48.818Z,8.93
2018-06-09T10:51:17.303Z,12.50
2018-06-09T10:53:58.545Z,11.77
2018-06-09T10:56:33.823Z,11.37
2018-06-09T10:59:02.185Z,12.03
2018-06-09T11:01:34.011Z,10.27
2018-06-09T11:04:02.567Z,9.70
2018-06-09T11:06:33.026Z,9.90
2018-06-09T11:09:01.491Z,9.17
2018-06-09T11:11:34.453Z,11.43
2018-06-09T11:14:08.818Z,11.03
2018-06-09T11:16:43.470Z,11.63
2018-06-09T11:19:20.121Z,9.07
2018-06-09T11:21:48.410Z,10.93
2018-06-09T11:24:21.675Z,8.80
2018-06-09T11:26:54.963Z,10.83
2018-06-09T11:29:25.383Z,10.00
2018-06-09T11:31:56.566Z,8.47
2018-06-09T11:34:24.799Z,9.87
2018-06-09T11:36:57.195Z,8.43
2018-06-09T11:42:05.308Z,6.93
2018-06-09T11:44:33.617Z,7.10
2018-06-09T11:47:06.887Z,9.27
2018-06-09T11:49:42.434Z,7.57
2018-06-09T11:52:17.878Z,6.97
2018-06-09T11:54:57.788Z,5.83
2018-06-09T11:57:26.188Z,6.30
2018-06-09T11:59:54.726Z,6.30
2018-06-09T12:02:23.162Z,6.47
2018-06-09T12:04:51.548Z,5.67
2018-06-09T12:07:19.856Z,6.30
2018-06-09T12:09:52.306Z,7.30
2018-06-09T12:12:29.919Z,6.80
2018-06-09T12:14:58.239Z,7.10
2018-06-09T12:17:29.221Z,4.93
2018-06-09T12:20:07.723Z,7.03
2018-06-09T12:22:47.889Z,7.23
2018-06-09T12:25:16.464Z,13.17
2018-06-09T12:27:47.856Z,8.97
2018-06-09T12:30:16.282Z,5.47
2018-06-09T12:32:44.844Z,7.17
2018-06-09T12:35:13.074Z,6.10
2018-06-09T12:37:41.486Z,8.27
2018-06-09T12:40:11.849Z,5.20
2018-06-09T12:42:46.450Z,4.40
2018-06-09T12:45:19.791Z,8.03
2018-06-09T12:47:54.907Z,5.87
2018-06-09T12:50:23.457Z,7.73
2018-06-09T12:53:03.572Z,5.97
2018-06-09T12:55:34.048Z,4.50
2018-06-09T12:58:02.552Z,6.87
2018-06-09T13:00:33.114Z,5.23
2018-06-09T13:03:04.320Z,4.77
2018-06-09T13:05:32.626Z,8.47
2018-06-09T13:08:12.519Z,5.07
2018-06-09T13:10:42.793Z,5.60
2018-06-09T13:13:11.233Z,4.87
2018-06-09T13:15:39.632Z,4.60
2018-06-09T13:18:07.930Z,8.33
2018-06-09T13:20:39.004Z,6.03
2018-06-09T13:23:17.386Z,4.80
2018-06-09T13:25:45.642Z,5.93
2018-06-09T13:28:13.928Z,4.87
2018-06-09T13:30:42.180Z,5.17
2018-06-09T13:33:13.229Z,5.10
2018-06-09T13:35:44.553Z,5.10
2018-06-09T13:38:12.855Z,4.90
2018-06-09T13:40:41.172Z,4.77
2018-06-09T13:43:12.371Z,8.83
2018-06-09T13:45:44.058Z,4.33
2018-06-09T13:48:20.828Z,5.00
2018-06-09T13:50:49.076Z,5.87
2018-06-09T13:53:25.106Z,5.67
2018-06-09T13:55:55.335Z,8.57
2018-06-09T13:58:23.779Z,4.67
2018-06-09T14:00:51.999Z,4.80
2018-06-09T14:03:23.086Z,5.33
2018-06-09T14:06:07.250Z,5.83
2018-06-09T14:08:35.610Z,7.47
2018-06-09T14:11:04.094Z,6.13
2018-06-09T14:13:32.443Z,6.47
2018-06-09T14:16:05.613Z,5.00
2018-06-09T14:18:41.288Z,8.60
2018-06-09T14:21:12.648Z,5.57
2018-06-09T14:23:46.124Z,5.23
2018-06-09T14:26:19.495Z,4.73
2018-06-09T14:28:50.642Z,6.93
2018-06-09T14:31:23.286Z,6.00
2018-06-09T14:33:57.752Z,4.63
2018-06-09T14:36:35.071Z,6.07
2018-06-09T14:39:11.277Z,5.73
2018-06-09T14:41:39.851Z,4.63
2018-06-09T14:44:08.084Z,4.53
2018-06-09T14:46:36.377Z,5.67
2018-06-09T14:49:08.977Z,5.17
2018-06-09T14:51:37.215Z,4.73
2018-06-09T14:54:11.959Z,4.07
2018-06-09T14:56:40.239Z,4.57
2018-06-09T14:59:09.180Z,5.07
2018-06-09T15:01:41.417Z,4.50
2018-06-09T15:04:09.820Z,6.57
2018-06-09T15:06:38.004Z,4.67
2018-06-09T15:09:08.258Z,4.90
2018-06-09T15:11:41.639Z,4.80
2018-06-09T15:14:18.054Z,7.63
2018-06-09T15:16:48.322Z,4.67
2018-06-09T15:19:16.612Z,7.97
2018-06-09T15:21:44.860Z,5.53
2018-06-09T15:24:24.922Z,5.77
2018-06-09T15:26:53.188Z,6.10
2018-06-09T15:29:21.379Z,6.13
2018-06-09T15:31:55.960Z,4.90
2018-06-09T15:34:24.203Z,5.87
2018-06-09T15:36:56.827Z,4.80
2018-06-09T15:39:29.215Z,6.83
2018-06-09T15:42:03.873Z,4.60
2018-06-09T15:44:32.235Z,3.90
2018-06-09T15:47:03.307Z,7.00
2018-06-09T15:49:34.396Z,5.83
2018-06-09T15:52:02.455Z,5.53
2018-06-09T15:54:41.068Z,4.27
2018-06-09T15:57:11.355Z,4.60
2018-06-09T15:59:45.742Z,6.90
2018-06-09T16:02:13.846Z,4.40
2018-06-09T16:04:41.898Z,4.83
2018-06-09T16:07:15.526Z,4.73
2018-06-09T16:09:43.579Z,4.97
2018-06-09T16:12:17.566Z,4.70
2018-06-09T16:14:46.086Z,5.03
2018-06-09T16:17:14.689Z,3.83
2018-06-09T16:19:42.958Z,5.50
2018-06-09T16:22:11.093Z,5.93
2018-06-09T16:24:39.173Z,6.93
2018-06-09T16:27:07.423Z,6.73
2018-06-09T16:29:45.462Z,12.27
2018-06-09T16:32:22.269Z,7.33
2018-06-09T16:34:50.565Z,4.40
2018-06-09T16:37:21.200Z,5.47
2018-06-09T16:39:49.322Z,5.03
2018-06-09T16:42:19.754Z,5.10
2018-06-09T16:44:52.169Z,5.67
2018-06-09T16:47:23.546Z,6.77
2018-06-09T16:49:56.619Z,10.70
2018-06-09T16:52:24.822Z,5.43
2018-06-09T16:54:52.915Z,4.87
2018-06-09T16:57:21.110Z,5.63
2018-06-09T16:59:49.803Z,4.53
2018-06-09T17:02:18.411Z,4.93
2018-06-09T17:04:46.553Z,4.40
2018-06-09T17:07:21.418Z,5.27
2018-06-09T17:09:51.649Z,6.33
2018-06-09T17:12:19.697Z,7.83
2018-06-09T17:14:54.333Z,4.90
2018-06-09T17:17:25.163Z,8.20
2018-06-09T17:19:53.203Z,8.27
2018-06-09T17:22:25.720Z,5.50
2018-06-09T17:25:06.440Z,4.47
2018-06-09T17:27:34.674Z,9.03
2018-06-09T17:30:09.949Z,5.47
2018-06-09T17:32:40.165Z,5.83
2018-06-09T17:35:10.567Z,8.20
2018-06-09T17:37:38.575Z,5.03
2018-06-09T17:40:09.685Z,5.17
2018-06-09T17:42:39.896Z,9.30
2018-06-09T17:45:07.947Z,5.97
2018-06-09T17:47:35.991Z,6.63
2018-06-09T17:50:04.180Z,5.10
2018-06-09T17:52:41.951Z,6.37
2018-06-09T17:55:10.004Z,5.13
2018-06-09T17:57:44.817Z,5.40
2018-06-09T18:00:13.077Z,6.53
2018-06-09T18:02:41.347Z,4.70
2018-06-09T18:05:12.611Z,6.20
2018-06-09T18:07:47.019Z,6.87
2018-06-09T18:10:18.698Z,5.77
2018-06-09T18:12:49.712Z,6.20
2018-06-09T18:15:22.050Z,6.60
2018-06-09T18:17:50.241Z,8.37
2018-06-09T18:20:30.179Z,6.33
2018-06-09T18:23:00.551Z,10.33
2018-06-09T18:25:28.814Z,6.70
2018-06-09T18:27:57.089Z,6.23
2018-06-09T18:30:31.843Z,6.67
2018-06-09T18:33:00.094Z,7.20
2018-06-09T18:35:33.178Z,5.70
2018-06-09T18:38:01.138Z,6.50
2018-06-09T18:40:32.118Z,6.90
2018-06-09T18:43:12.308Z,6.73
2018-06-09T18:45:40.733Z,5.77
2018-06-09T18:48:08.990Z,6.73
2018-06-09T18:50:41.630Z,7.73
2018-06-09T18:53:09.856Z,7.30
2018-06-09T18:55:45.874Z,6.30
2018-06-09T18:58:16.472Z,8.53
2018-06-09T19:00:47.921Z,7.37
2018-06-09T19:03:21.313Z,6.70
2018-06-09T19:05:53.620Z,5.50
2018-06-09T19:08:21.949Z,6.90
2018-06-09T19:10:50.317Z,6.20
2018-06-09T19:13:18.685Z,5.97
2018-06-09T19:15:53.136Z,7.17
2018-06-09T19:18:25.672Z,6.50
2018-06-09T19:20:58.422Z,8.23
2018-06-09T19:23:26.635Z,6.67
2018-06-09T19:26:01.656Z,6.70
2018-06-09T19:28:31.948Z,6.60
2018-06-09T19:31:03.154Z,6.93
2018-06-09T19:33:31.429Z,9.67
2018-06-09T19:36:08.864Z,6.20
2018-06-09T19:38:39.206Z,7.17
2018-06-09T19:41:19.160Z,7.07
2018-06-09T19:43:47.568Z,6.43
2018-06-09T19:46:15.935Z,6.80
2018-06-09T19:48:44.281Z,7.67
2018-06-09T19:51:17.712Z,8.07
2018-06-09T19:53:50.292Z,6.30
2018-06-09T19:56:21.549Z,7.67
2018-06-09T19:58:54.697Z,6.20
2018-06-09T20:01:27.112Z,7.00
2018-06-09T20:04:00.522Z,6.47
2018-06-09T20:06:39.214Z,7.27
2018-06-09T20:09:08.095Z,8.47
2018-06-09T20:11:36.355Z,8.57
2018-06-09T20:14:17.034Z,7.23
2018-06-09T20:16:45.218Z,7.93
2018-06-09T20:19:18.298Z,7.50
2018-06-09T20:21:51.880Z,7.67
2018-06-09T20:24:27.561Z,8.23
2018-06-09T20:27:00.082Z,7.17
2018-06-09T20:29:33.410Z,8.83
2018-06-09T20:32:03.832Z,7.53
2018-06-09T20:34:39.216Z,7.13
2018-06-09T20:37:13.671Z,7.57
2018-06-09T20:39:46.154Z,7.43
2018-06-09T20:42:19.204Z,11.17
2018-06-09T20:44:51.722Z,6.90
2018-06-09T20:47:22.895Z,7.07
2018-06-09T20:49:51.233Z,8.60
2018-06-09T20:52:23.700Z,6.43
2018-06-09T20:54:52.240Z,6.20
2018-06-09T20:57:20.536Z,9.90
2018-06-09T20:59:51.784Z,6.83
2018-06-09T21:02:25.083Z,6.43
2018-06-09T21:04:56.634Z,6.97
2018-06-09T21:07:28.947Z,6.73
2018-06-09T21:09:57.377Z,6.10
2018-06-09T21:12:25.730Z,9.47
2018-06-09T21:14:54.067Z,8.37
2018-06-09T21:17:33.978Z,6.63
2018-06-09T21:20:06.472Z,6.73
2018-06-09T21:22:38.785Z,7.00
2018-06-09T21:25:07.499Z,6.37
2018-06-09T21:27:46.423Z,7.30
2018-06-09T21:30:17.022Z,6.03
2018-06-09T21:32:47.443Z,7.23
2018-06-09T21:35:32.452Z,6.87
2018-06-09T21:38:11.087Z,6.13
2018-06-09T21:40:45.035Z,7.63
2018-06-09T21:43:24.308Z,7.10
2018-06-09T21:45:56.778Z,7.33
2018-06-09T21:48:29.067Z,7.80
2018-06-09T21:50:57.504Z,7.67
2018-06-09T21:53:25.755Z,6.83
2018-06-09T21:55:53.971Z,6.63
2018-06-09T21:58:25.052Z,6.70
2018-06-09T22:00:53.561Z,6.80
2018-06-09T22:03:23.775Z,6.97
2018-06-09T22:05:52.068Z,7.47
2018-06-09T22:08:25.215Z,11.47
2018-06-09T22:10:58.987Z,7.20
2018-06-09T22:13:38.084Z,7.50
2018-06-09T22:16:08.571Z,7.30
2018-06-09T22:18:39.589Z,7.40
2018-06-09T22:21:07.888Z,7.00
2018-06-09T22:23:40.271Z,6.97
2018-06-09T22:26:15.263Z,7.07
2018-06-09T22:28:46.713Z,7.63
2018-06-09T22:31:17.388Z,8.07
2018-06-09T22:33:51.581Z,9.33
2018-06-09T22:36:20.048Z,7.60
2018-06-09T22:38:48.594Z,7.77
2018-06-09T22:41:17.246Z,8.97
2018-06-09T22:43:55.755Z,10.03
2018-06-09T22:46:28.099Z,8.43
2018-06-09T22:48:59.674Z,9.97
2018-06-09T22:51:33.023Z,8.43
2018-06-09T22:54:03.634Z,10.73
2018-06-09T22:56:36.966Z,12.17
2018-06-09T22:59:07.545Z,10.47
2018-06-09T23:01:41.563Z,12.00
2018-06-09T23:04:09.806Z,15.63
2018-06-09T23:06:42.494Z,14.67
2018-06-09T23:09:10.748Z,15.50
2018-06-09T23:11:45.906Z,12.37
2018-06-09T23:14:18.295Z,13.40
2018-06-09T23:16:49.671Z,12.30
2018-06-09T23:19:19.827Z,14.70
2018-06-09T23:21:48.080Z,13.27
2018-06-09T23:24:28.840Z,12.83
2018-06-09T23:26:57.067Z,13.97
2018-06-09T23:29:28.594Z,15.40
2018-06-09T23:31:56.861Z,14.87
2018-06-09T23:34:32.400Z,15.13
2018-06-09T23:37:02.406Z,13.80
2018-06-09T23:39:33.583Z,15.47
2018-06-09T23:42:01.870Z,14.77
2018-06-09T23:44:34.365Z,17.57
2018-06-09T23:47:08.698Z,17.07
2018-06-09T23:49:36.832Z,18.40
2018-06-09T23:52:08.369Z,18.47
2018-06-09T23:54:39.847Z,19.27
2018-06-09T23:57:21.934Z,17.43
2018-06-09T23:59:50.502Z,17.23
